sensor_id;sensor_type;location;lat;lon;timestamp;pressure;altitude;pressure_sealevel;temperature;humidity
57442;BME280;43284;47.042;15.498;2023-06-14T14:02:14;96961.44;;;18.15;71.08
57442;BME280;43284;47.042;15.498;2023-06-14T14:04:40;96965.84;;;18.26;72.84
57442;BME280;43284;47.042;15.498;2023-06-14T14:07:07;96957.25;;;18.33;69.95
57442;BME280;43284;47.042;15.498;2023-06-14T14:09:33;96967.41;;;18.28;71.59
57442;BME280;43284;47.042;15.498;2023-06-14T14:12:00;96968.19;;;18.40;75.22
57442;BME280;43284;47.042;15.498;2023-06-14T14:14:26;96970.06;;;18.49;72.72
57442;BME280;43284;47.042;15.498;2023-06-14T14:16:52;96958.72;;;18.59;71.34
57442;BME280;43284;47.042;15.498;2023-06-14T14:19:22;96961.72;;;18.75;70.02
57442;BME280;43284;47.042;15.498;2023-06-14T14:21:48;96960.53;;;18.79;69.38
57442;BME280;43284;47.042;15.498;2023-06-14T14:24:13;96958.50;;;18.92;71.00
57442;BME280;43284;47.042;15.498;2023-06-14T14:26:39;96957.91;;;19.10;71.09
57442;BME280;43284;47.042;15.498;2023-06-14T14:29:05;96946.13;;;19.33;70.15
57442;BME280;43284;47.042;15.498;2023-06-14T14:31:31;96950.03;;;19.29;66.29
57442;BME280;43284;47.042;15.498;2023-06-14T14:33:57;96945.66;;;19.19;65.46
57442;BME280;43284;47.042;15.498;2023-06-14T14:36:23;96942.44;;;19.15;66.00
57442;BME280;43284;47.042;15.498;2023-06-14T14:38:48;96943.53;;;19.12;67.44
57442;BME280;43284;47.042;15.498;2023-06-14T14:41:14;96939.06;;;19.13;68.78
57442;BME280;43284;47.042;15.498;2023-06-14T14:43:39;96944.00;;;19.18;71.87
57442;BME280;43284;47.042;15.498;2023-06-14T14:46:05;96942.69;;;19.02;68.40
57442;BME280;43284;47.042;15.498;2023-06-14T14:48:31;96946.91;;;19.14;71.96
57442;BME280;43284;47.042;15.498;2023-06-14T14:50:57;96940.34;;;19.19;68.86
57442;BME280;43284;47.042;15.498;2023-06-14T14:53:22;96948.50;;;19.27;68.09
57442;BME280;43284;47.042;15.498;2023-06-14T14:55:48;96946.50;;;19.19;67.81
57442;BME280;43284;47.042;15.498;2023-06-14T14:58:14;96944.78;;;19.08;66.10
57442;BME280;43284;47.042;15.498;2023-06-14T15:00:44;96941.91;;;19.21;67.87
57442;BME280;43284;47.042;15.498;2023-06-14T15:03:10;96944.72;;;19.29;69.61
57442;BME280;43284;47.042;15.498;2023-06-14T15:05:36;96947.38;;;19.29;68.51
57442;BME280;43284;47.042;15.498;2023-06-14T15:08:02;96948.03;;;19.22;65.09
57442;BME280;43284;47.042;15.498;2023-06-14T15:10:28;96948.41;;;19.07;64.38
57442;BME280;43284;47.042;15.498;2023-06-14T15:12:54;96953.78;;;18.96;64.23
57442;BME280;43284;47.042;15.498;2023-06-14T15:15:21;96951.88;;;19.08;67.59
57442;BME280;43284;47.042;15.498;2023-06-14T15:17:47;96945.13;;;19.25;68.30
57442;BME280;43284;47.042;15.498;2023-06-14T15:20:12;96943.31;;;19.25;64.71
57442;BME280;43284;47.042;15.498;2023-06-14T15:22:40;96943.41;;;19.14;64.65
57442;BME280;43284;47.042;15.498;2023-06-14T15:25:06;96949.16;;;18.88;66.76
57442;BME280;43284;47.042;15.498;2023-06-14T15:27:32;96949.75;;;19.02;70.03
57442;BME280;43284;47.042;15.498;2023-06-14T15:29:57;96948.41;;;19.07;70.48
57442;BME280;43284;47.042;15.498;2023-06-14T15:32:23;96951.28;;;18.94;69.80
57442;BME280;43284;47.042;15.498;2023-06-14T15:34:48;96955.66;;;18.84;68.52
57442;BME280;43284;47.042;15.498;2023-06-14T15:37:14;96948.03;;;18.91;70.23
57442;BME280;43284;47.042;15.498;2023-06-14T15:39:39;96951.09;;;18.86;68.08
57442;BME280;43284;47.042;15.498;2023-06-14T15:42:05;96939.34;;;19.10;69.64
57442;BME280;43284;47.042;15.498;2023-06-14T15:44:32;96942.34;;;19.26;68.97
57442;BME280;43284;47.042;15.498;2023-06-14T15:46:58;96943.91;;;19.39;68.72
57442;BME280;43284;47.042;15.498;2023-06-14T15:49:23;96934.84;;;19.41;67.73
57442;BME280;43284;47.042;15.498;2023-06-14T15:51:49;96934.72;;;19.43;67.46
57442;BME280;43284;47.042;15.498;2023-06-14T15:54:14;96939.78;;;19.65;66.27
57442;BME280;43284;47.042;15.498;2023-06-14T15:56:40;96941.69;;;19.84;64.72
57442;BME280;43284;47.042;15.498;2023-06-14T15:59:06;96951.59;;;20.11;66.64
57442;BME280;43284;47.042;15.498;2023-06-14T16:01:32;96954.69;;;20.16;65.82
57442;BME280;43284;47.042;15.498;2023-06-14T16:03:58;96953.56;;;20.29;64.08
57442;BME280;43284;47.042;15.498;2023-06-14T16:06:23;96952.31;;;20.13;61.62
57442;BME280;43284;47.042;15.498;2023-06-14T16:08:49;96954.25;;;20.11;60.54
57442;BME280;43284;47.042;15.498;2023-06-14T16:11:14;96956.22;;;20.29;62.59
57442;BME280;43284;47.042;15.498;2023-06-14T16:13:41;96957.34;;;20.36;63.51
57442;BME280;43284;47.042;15.498;2023-06-14T16:16:09;96963.22;;;20.30;62.06
57442;BME280;43284;47.042;15.498;2023-06-14T16:18:34;96955.41;;;20.38;59.98
57442;BME280;43284;47.042;15.498;2023-06-14T16:21:00;96966.72;;;20.21;55.46
57442;BME280;43284;47.042;15.498;2023-06-14T16:23:27;96964.03;;;19.82;62.35
57442;BME280;43284;47.042;15.498;2023-06-14T16:25:52;96978.03;;;19.63;68.78
57442;BME280;43284;47.042;15.498;2023-06-14T16:28:18;96978.16;;;19.61;67.39
57442;BME280;43284;47.042;15.498;2023-06-14T16:30:43;96977.78;;;19.66;67.98
57442;BME280;43284;47.042;15.498;2023-06-14T16:33:10;96975.13;;;19.66;65.81
57442;BME280;43284;47.042;15.498;2023-06-14T16:35:35;96975.47;;;19.72;69.71
57442;BME280;43284;47.042;15.498;2023-06-14T16:38:01;96970.06;;;19.63;71.23
57442;BME280;43284;47.042;15.498;2023-06-14T16:40:29;96977.47;;;19.59;73.59
57442;BME280;43284;47.042;15.498;2023-06-14T16:42:55;96974.13;;;19.57;71.58
57442;BME280;43284;47.042;15.498;2023-06-14T16:45:20;96974.75;;;19.70;68.37
57442;BME280;43284;47.042;15.498;2023-06-14T16:47:46;96974.13;;;19.67;64.31
57442;BME280;43284;47.042;15.498;2023-06-14T16:50:11;96976.41;;;19.71;65.94
57442;BME280;43284;47.042;15.498;2023-06-14T16:52:37;96975.59;;;19.71;66.60
57442;BME280;43284;47.042;15.498;2023-06-14T16:55:03;96980.56;;;19.64;68.27
57442;BME280;43284;47.042;15.498;2023-06-14T16:57:28;96982.13;;;19.36;68.09
57442;BME280;43284;47.042;15.498;2023-06-14T16:59:54;96992.00;;;19.24;69.96
57442;BME280;43284;47.042;15.498;2023-06-14T17:02:19;96987.56;;;19.04;68.01
57442;BME280;43284;47.042;15.498;2023-06-14T17:04:46;97000.88;;;18.92;68.81
57442;BME280;43284;47.042;15.498;2023-06-14T17:07:11;96995.16;;;18.87;69.85
57442;BME280;43284;47.042;15.498;2023-06-14T17:09:37;97005.56;;;18.79;71.17
57442;BME280;43284;47.042;15.498;2023-06-14T17:12:03;96999.31;;;18.69;70.49
57442;BME280;43284;47.042;15.498;2023-06-14T17:14:28;97000.47;;;18.55;71.85
57442;BME280;43284;47.042;15.498;2023-06-14T17:16:54;97011.75;;;18.36;74.63
57442;BME280;43284;47.042;15.498;2023-06-14T17:19:20;97008.59;;;18.42;75.53
57442;BME280;43284;47.042;15.498;2023-06-14T17:21:46;97014.47;;;18.46;75.03
57442;BME280;43284;47.042;15.498;2023-06-14T17:24:15;97014.28;;;18.38;74.63
57442;BME280;43284;47.042;15.498;2023-06-14T17:26:40;97015.53;;;18.22;72.90
57442;BME280;43284;47.042;15.498;2023-06-14T17:29:06;97010.97;;;18.24;74.12
57442;BME280;43284;47.042;15.498;2023-06-14T17:31:31;97012.25;;;18.30;75.93
57442;BME280;43284;47.042;15.498;2023-06-14T17:33:57;97017.91;;;18.37;75.59
57442;BME280;43284;47.042;15.498;2023-06-14T17:36:23;97014.88;;;18.30;75.79
57442;BME280;43284;47.042;15.498;2023-06-14T17:38:48;97015.16;;;18.27;74.80
57442;BME280;43284;47.042;15.498;2023-06-14T17:43:42;97013.38;;;18.16;77.73
57442;BME280;43284;47.042;15.498;2023-06-14T17:46:09;97020.72;;;18.12;78.02
57442;BME280;43284;47.042;15.498;2023-06-14T17:48:34;97030.72;;;18.09;77.97
57442;BME280;43284;47.042;15.498;2023-06-14T17:51:04;97031.94;;;18.05;78.98
57442;BME280;43284;47.042;15.498;2023-06-14T17:53:30;97043.38;;;17.94;79.88
57442;BME280;43284;47.042;15.498;2023-06-14T17:55:55;97040.50;;;17.86;81.50
57442;BME280;43284;47.042;15.498;2023-06-14T17:58:21;97046.25;;;17.80;83.45
57442;BME280;43284;47.042;15.498;2023-06-14T18:00:47;97041.31;;;17.75;82.67
57442;BME280;43284;47.042;15.498;2023-06-14T18:03:13;97042.06;;;17.66;82.70
57442;BME280;43284;47.042;15.498;2023-06-14T18:05:42;97046.88;;;17.61;81.63
57442;BME280;43284;47.042;15.498;2023-06-14T18:08:08;97055.66;;;17.50;82.55
57442;BME280;43284;47.042;15.498;2023-06-14T18:10:34;97052.41;;;17.35;83.33
57442;BME280;43284;47.042;15.498;2023-06-14T18:13:00;97054.31;;;17.22;84.48
57442;BME280;43284;47.042;15.498;2023-06-14T18:15:26;97057.66;;;17.13;86.50
57442;BME280;43284;47.042;15.498;2023-06-14T18:17:52;97058.84;;;16.97;86.86
57442;BME280;43284;47.042;15.498;2023-06-14T18:20:19;97061.13;;;16.91;87.59
57442;BME280;43284;47.042;15.498;2023-06-14T18:22:45;97059.56;;;16.88;88.33
57442;BME280;43284;47.042;15.498;2023-06-14T18:25:13;97050.19;;;16.84;86.69
57442;BME280;43284;47.042;15.498;2023-06-14T18:27:39;97062.34;;;16.74;86.19
57442;BME280;43284;47.042;15.498;2023-06-14T18:30:06;97062.75;;;16.56;87.06
57442;BME280;43284;47.042;15.498;2023-06-14T18:32:32;97060.19;;;16.43;87.45
57442;BME280;43284;47.042;15.498;2023-06-14T18:34:59;97059.59;;;16.40;87.52
57442;BME280;43284;47.042;15.498;2023-06-14T18:37:24;97066.91;;;16.47;88.51
57442;BME280;43284;47.042;15.498;2023-06-14T18:39:50;97065.81;;;16.39;85.48
57442;BME280;43284;47.042;15.498;2023-06-14T18:42:16;97061.81;;;16.33;86.98
57442;BME280;43284;47.042;15.498;2023-06-14T18:44:42;97073.78;;;16.26;86.28
57442;BME280;43284;47.042;15.498;2023-06-14T18:47:07;97073.78;;;16.26;84.89
57442;BME280;43284;47.042;15.498;2023-06-14T18:49:33;97072.47;;;16.08;86.02
57442;BME280;43284;47.042;15.498;2023-06-14T18:51:59;97075.06;;;15.96;87.32
57442;BME280;43284;47.042;15.498;2023-06-14T18:54:25;97076.56;;;15.88;87.81
57442;BME280;43284;47.042;15.498;2023-06-14T18:56:51;97079.19;;;15.88;87.94
57442;BME280;43284;47.042;15.498;2023-06-14T18:59:17;97082.75;;;15.86;88.02
57442;BME280;43284;47.042;15.498;2023-06-14T19:01:43;97087.84;;;15.77;87.19
57442;BME280;43284;47.042;15.498;2023-06-14T19:04:08;97086.69;;;15.68;87.59
57442;BME280;43284;47.042;15.498;2023-06-14T19:06:34;97091.66;;;15.73;88.69
57442;BME280;43284;47.042;15.498;2023-06-14T19:08:59;97082.78;;;15.74;90.15
57442;BME280;43284;47.042;15.498;2023-06-14T19:11:25;97081.22;;;15.71;89.72
57442;BME280;43284;47.042;15.498;2023-06-14T19:13:50;97085.22;;;15.64;90.64
57442;BME280;43284;47.042;15.498;2023-06-14T19:16:16;97097.66;;;15.49;91.75
57442;BME280;43284;47.042;15.498;2023-06-14T19:18:41;97102.84;;;15.38;92.36
57442;BME280;43284;47.042;15.498;2023-06-14T19:21:07;97096.19;;;15.32;92.44
57442;BME280;43284;47.042;15.498;2023-06-14T19:23:33;97111.47;;;15.27;93.08
57442;BME280;43284;47.042;15.498;2023-06-14T19:25:58;97104.72;;;15.23;93.31
57442;BME280;43284;47.042;15.498;2023-06-14T19:28:24;97111.97;;;15.19;93.48
57442;BME280;43284;47.042;15.498;2023-06-14T19:30:51;97113.56;;;15.09;93.82
57442;BME280;43284;47.042;15.498;2023-06-14T19:33:16;97119.25;;;15.03;94.20
57442;BME280;43284;47.042;15.498;2023-06-14T19:35:42;97114.47;;;14.95;93.91
57442;BME280;43284;47.042;15.498;2023-06-14T19:38:08;97122.91;;;14.88;93.73
57442;BME280;43284;47.042;15.498;2023-06-14T19:40:34;97125.09;;;14.81;95.27
57442;BME280;43284;47.042;15.498;2023-06-14T19:42:59;97128.34;;;14.72;96.25
57442;BME280;43284;47.042;15.498;2023-06-14T19:45:25;97127.69;;;14.68;97.12
57442;BME280;43284;47.042;15.498;2023-06-14T19:47:51;97134.94;;;14.65;98.04
57442;BME280;43284;47.042;15.498;2023-06-14T19:50:16;97134.19;;;14.62;96.73
57442;BME280;43284;47.042;15.498;2023-06-14T19:52:42;97134.59;;;14.56;96.86
57442;BME280;43284;47.042;15.498;2023-06-14T19:55:09;97139.66;;;14.59;99.19
57442;BME280;43284;47.042;15.498;2023-06-14T19:57:35;97138.59;;;14.62;99.03
57442;BME280;43284;47.042;15.498;2023-06-14T20:00:01;97135.59;;;14.54;98.35
57442;BME280;43284;47.042;15.498;2023-06-14T20:02:29;97142.03;;;14.50;98.46
57442;BME280;43284;47.042;15.498;2023-06-14T20:04:55;97146.72;;;14.45;98.78
57442;BME280;43284;47.042;15.498;2023-06-14T20:07:20;97152.47;;;14.37;98.33
57442;BME280;43284;47.042;15.498;2023-06-14T20:09:48;97146.19;;;14.39;99.53
57442;BME280;43284;47.042;15.498;2023-06-14T20:12:13;97144.16;;;14.30;98.82
57442;BME280;43284;47.042;15.498;2023-06-14T20:14:39;97149.50;;;14.29;99.12
57442;BME280;43284;47.042;15.498;2023-06-14T20:17:05;97150.53;;;14.26;98.81
57442;BME280;43284;47.042;15.498;2023-06-14T20:19:30;97154.22;;;14.24;99.47
57442;BME280;43284;47.042;15.498;2023-06-14T20:21:56;97151.97;;;14.17;99.71
57442;BME280;43284;47.042;15.498;2023-06-14T20:24:22;97157.31;;;14.16;100.00
57442;BME280;43284;47.042;15.498;2023-06-14T20:26:48;97148.22;;;14.07;98.95
57442;BME280;43284;47.042;15.498;2023-06-14T20:29:13;97154.50;;;14.05;99.75
57442;BME280;43284;47.042;15.498;2023-06-14T20:31:39;97151.06;;;14.04;99.88
57442;BME280;43284;47.042;15.498;2023-06-14T20:34:04;97154.81;;;14.00;99.57
57442;BME280;43284;47.042;15.498;2023-06-14T20:36:31;97152.25;;;13.98;100.00
57442;BME280;43284;47.042;15.498;2023-06-14T20:38:57;97143.34;;;14.01;100.00
57442;BME280;43284;47.042;15.498;2023-06-14T20:41:23;97144.75;;;14.07;100.00
57442;BME280;43284;47.042;15.498;2023-06-14T20:43:49;97140.53;;;14.04;100.00
57442;BME280;43284;47.042;15.498;2023-06-14T20:46:14;97142.50;;;14.00;100.00
57442;BME280;43284;47.042;15.498;2023-06-14T20:48:42;97146.09;;;13.99;100.00
57442;BME280;43284;47.042;15.498;2023-06-14T20:51:08;97143.72;;;13.95;100.00
57442;BME280;43284;47.042;15.498;2023-06-14T20:53:33;97144.88;;;13.91;100.00
57442;BME280;43284;47.042;15.498;2023-06-14T20:55:59;97145.25;;;13.85;100.00
57442;BME280;43284;47.042;15.498;2023-06-14T20:58:25;97145.72;;;13.77;100.00
57442;BME280;43284;47.042;15.498;2023-06-14T21:00:51;97151.06;;;13.75;100.00
57442;BME280;43284;47.042;15.498;2023-06-14T21:03:17;97153.03;;;13.72;100.00
57442;BME280;43284;47.042;15.498;2023-06-14T21:05:42;97155.75;;;13.70;100.00
57442;BME280;43284;47.042;15.498;2023-06-14T21:08:08;97152.00;;;13.74;100.00
57442;BME280;43284;47.042;15.498;2023-06-14T21:10:33;97154.63;;;13.74;100.00
57442;BME280;43284;47.042;15.498;2023-06-14T21:12:59;97157.75;;;13.67;100.00
57442;BME280;43284;47.042;15.498;2023-06-14T21:15:24;97159.78;;;13.62;100.00
57442;BME280;43284;47.042;15.498;2023-06-14T21:17:56;97160.81;;;13.59;100.00
57442;BME280;43284;47.042;15.498;2023-06-14T21:20:22;97168.16;;;13.54;100.00
57442;BME280;43284;47.042;15.498;2023-06-14T21:22:48;97163.25;;;13.48;100.00
57442;BME280;43284;47.042;15.498;2023-06-14T21:25:14;97163.34;;;13.46;100.00
57442;BME280;43284;47.042;15.498;2023-06-14T21:27:40;97161.81;;;13.42;100.00
57442;BME280;43284;47.042;15.498;2023-06-14T21:30:06;97155.19;;;13.36;100.00
57442;BME280;43284;47.042;15.498;2023-06-14T21:32:35;97164.09;;;13.34;100.00
57442;BME280;43284;47.042;15.498;2023-06-14T21:35:05;97173.09;;;13.30;100.00
57442;BME280;43284;47.042;15.498;2023-06-14T21:37:30;97169.66;;;13.28;100.00
57442;BME280;43284;47.042;15.498;2023-06-14T21:39:56;97169.00;;;13.24;100.00
57442;BME280;43284;47.042;15.498;2023-06-14T21:42:21;97167.31;;;13.23;100.00
57442;BME280;43284;47.042;15.498;2023-06-14T21:44:47;97172.56;;;13.23;100.00
57442;BME280;43284;47.042;15.498;2023-06-14T21:47:16;97170.78;;;13.24;100.00
57442;BME280;43284;47.042;15.498;2023-06-14T21:49:42;97166.44;;;13.23;100.00
57442;BME280;43284;47.042;15.498;2023-06-14T21:52:10;97170.69;;;13.25;100.00
57442;BME280;43284;47.042;15.498;2023-06-14T21:54:36;97177.34;;;13.16;100.00
57442;BME280;43284;47.042;15.498;2023-06-14T21:57:01;97173.28;;;13.11;100.00
57442;BME280;43284;47.042;15.498;2023-06-14T21:59:27;97175.22;;;13.07;100.00
57442;BME280;43284;47.042;15.498;2023-06-14T22:01:52;97169.41;;;13.02;100.00
57442;BME280;43284;47.042;15.498;2023-06-14T22:04:18;97174.66;;;13.02;100.00
57442;BME280;43284;47.042;15.498;2023-06-14T22:06:43;97172.78;;;13.04;100.00
57442;BME280;43284;47.042;15.498;2023-06-14T22:09:14;97166.88;;;13.01;100.00
57442;BME280;43284;47.042;15.498;2023-06-14T22:11:40;97170.53;;;12.98;100.00
57442;BME280;43284;47.042;15.498;2023-06-14T22:14:07;97159.09;;;12.99;100.00
57442;BME280;43284;47.042;15.498;2023-06-14T22:16:36;97163.75;;;12.94;100.00
57442;BME280;43284;47.042;15.498;2023-06-14T22:19:06;97165.13;;;12.85;100.00
57442;BME280;43284;47.042;15.498;2023-06-14T22:21:32;97170.84;;;12.77;100.00
57442;BME280;43284;47.042;15.498;2023-06-14T22:24:02;97168.47;;;12.73;100.00
57442;BME280;43284;47.042;15.498;2023-06-14T22:26:31;97168.75;;;12.68;100.00
57442;BME280;43284;47.042;15.498;2023-06-14T22:28:59;97171.72;;;12.62;100.00
57442;BME280;43284;47.042;15.498;2023-06-14T22:31:31;97167.50;;;12.44;100.00
57442;BME280;43284;47.042;15.498;2023-06-14T22:34:02;97171.75;;;12.46;100.00
57442;BME280;43284;47.042;15.498;2023-06-14T22:36:28;97171.97;;;12.42;100.00
57442;BME280;43284;47.042;15.498;2023-06-14T22:38:55;97169.53;;;12.39;100.00
57442;BME280;43284;47.042;15.498;2023-06-14T22:41:21;97171.47;;;12.35;100.00
57442;BME280;43284;47.042;15.498;2023-06-14T22:43:51;97166.34;;;12.33;100.00
57442;BME280;43284;47.042;15.498;2023-06-14T22:46:17;97164.28;;;12.39;100.00
57442;BME280;43284;47.042;15.498;2023-06-14T22:48:48;97169.00;;;12.48;100.00
57442;BME280;43284;47.042;15.498;2023-06-14T22:51:19;97163.63;;;12.51;100.00
57442;BME280;43284;47.042;15.498;2023-06-14T22:53:46;97161.75;;;12.53;100.00
57442;BME280;43284;47.042;15.498;2023-06-14T22:56:13;97167.72;;;12.55;100.00
57442;BME280;43284;47.042;15.498;2023-06-14T22:58:39;97158.75;;;12.59;100.00
57442;BME280;43284;47.042;15.498;2023-06-14T23:01:14;97156.06;;;12.61;100.00
57442;BME280;43284;47.042;15.498;2023-06-14T23:03:47;97144.53;;;12.63;100.00
57442;BME280;43284;47.042;15.498;2023-06-14T23:06:14;97141.50;;;12.71;100.00
57442;BME280;43284;47.042;15.498;2023-06-14T23:08:42;97131.56;;;12.76;100.00
57442;BME280;43284;47.042;15.498;2023-06-14T23:11:15;97137.56;;;12.78;100.00
57442;BME280;43284;47.042;15.498;2023-06-14T23:13:42;97138.34;;;12.80;100.00
57442;BME280;43284;47.042;15.498;2023-06-14T23:16:09;97133.94;;;12.81;100.00
57442;BME280;43284;47.042;15.498;2023-06-14T23:18:38;97134.19;;;12.76;100.00
57442;BME280;43284;47.042;15.498;2023-06-14T23:21:04;97139.63;;;12.57;100.00
57442;BME280;43284;47.042;15.498;2023-06-14T23:23:33;97145.25;;;12.51;100.00
57442;BME280;43284;47.042;15.498;2023-06-14T23:26:02;97140.16;;;12.48;100.00
57442;BME280;43284;47.042;15.498;2023-06-14T23:28:31;97149.06;;;12.45;100.00
57442;BME280;43284;47.042;15.498;2023-06-14T23:31:02;97146.50;;;12.44;100.00
57442;BME280;43284;47.042;15.498;2023-06-14T23:33:33;97144.91;;;12.41;100.00
57442;BME280;43284;47.042;15.498;2023-06-14T23:36:00;97143.31;;;12.39;100.00
57442;BME280;43284;47.042;15.498;2023-06-14T23:38:29;97136.72;;;12.31;100.00
57442;BME280;43284;47.042;15.498;2023-06-14T23:40:56;97133.94;;;12.34;100.00
57442;BME280;43284;47.042;15.498;2023-06-14T23:43:25;97129.22;;;12.25;100.00
57442;BME280;43284;47.042;15.498;2023-06-14T23:45:51;97128.53;;;12.22;100.00
57442;BME280;43284;47.042;15.498;2023-06-14T23:48:22;97129.13;;;12.27;100.00
57442;BME280;43284;47.042;15.498;2023-06-14T23:50:51;97131.56;;;12.30;100.00
57442;BME280;43284;47.042;15.498;2023-06-14T23:53:17;97134.78;;;12.19;100.00
57442;BME280;43284;47.042;15.498;2023-06-14T23:55:44;97133.94;;;12.19;100.00
57442;BME280;43284;47.042;15.498;2023-06-14T23:58:15;97127.19;;;12.14;100.00
